M I D A S
Marine Information and Data Acquisition System
Tripno 2289 of the Zeeleeuw from 2012-04-12 07:18:30 to 2012-04-12 14:09:51
Back to CruiseResearch ActivitiesStationsMapUnderway DataData graphs

EquipmentUnitsComments
TimeDGPSUTC
LatitudeDGPSDM.mWGS84
LongitudeDGPSDM.mWGS84
SpeedMeteo Stationm/sRelative wind speed
DirectionMeteo StationdegRelative wind direction
TemperatureMeteo Stationdeg CelciusAir temperature
PressureMeteo StationPaAtmospheric pressure
HumidityMeteo Station%Relative humidity
Missing or incorrect values are displayed as -999
Metereological data collected by the RV Zeeleeuw from 2012-04-12 06:46:42 to 2012-04-12 14:20:17
Time Latitude Longitude Speed Direction Temperature Pressure Humidity
2012-04-12 06:47 51°13.637 2°56.021 -999 15 3.1 100120 46
2012-04-12 06:48 51°13.637 2°56.023 -999 11 3.1 100130 46
2012-04-12 06:49 51°13.636 2°56.023 -999 -999 -999 -999 -999
2012-04-12 06:50 51°13.636 2°56.022 -999 10 3.2 100130 46
2012-04-12 06:51 51°13.635 2°56.021 -999 11 3.2 100130 46
2012-04-12 06:52 51°13.636 2°56.021 -999 9 3.3 100120 46
2012-04-12 06:53 51°13.635 2°56.021 -999 2 3.3 100130 45
2012-04-12 06:54 51°13.635 2°56.021 -999 10 3.3 100130 46
2012-04-12 06:55 51°13.636 2°56.021 -999 14 3.3 100130 45
2012-04-12 06:56 51°13.636 2°56.02 -999 20 3.3 100130 45
2012-04-12 06:57 51°13.635 2°56.022 -999 20 3.4 100140 46
2012-04-12 06:58 51°13.636 2°56.021 -999 18 3.4 100140 46
2012-04-12 06:59 51°13.636 2°56.02 -999 13 3.4 100130 46
2012-04-12 07:00 51°13.636 2°56.02 -999 3 3.5 100140 46
2012-04-12 07:01 51°13.636 2°56.02 -999 12 3.5 100140 45
2012-04-12 07:02 51°13.636 2°56.02 -999 12 3.6 100140 46
2012-04-12 07:03 51°13.635 2°56.021 -999 12 3.6 100140 46
2012-04-12 07:04 51°13.636 2°56.02 -999 17 3.6 100140 46
2012-04-12 07:05 51°13.636 2°56.02 -999 5 3.6 100140 47
2012-04-12 07:06 51°13.636 2°56.02 -999 12 3.7 100140 46
2012-04-12 07:07 51°13.636 2°56.02 -999 17 3.7 100140 47
2012-04-12 07:08 51°13.636 2°56.02 -999 20 3.8 100140 46
2012-04-12 07:09 51°13.636 2°56.02 -999 21 3.8 100140 45
2012-04-12 07:10 51°13.636 2°56.019 -999 19 3.8 100140 46
2012-04-12 07:11 51°13.636 2°56.019 -999 21 3.9 100140 46
2012-04-12 07:12 51°13.636 2°56.019 -999 23 3.9 100140 46
2012-04-12 07:13 51°13.638 2°56.019 -999 22 3.9 100140 46
2012-04-12 07:14 51°13.638 2°56.018 -999 14 4 100140 46
2012-04-12 07:15 51°13.638 2°56.019 -999 24 4.1 100140 47
2012-04-12 07:16 51°13.636 2°56.019 -999 45 4.1 100140 46
2012-04-12 07:17 51°13.637 2°56.007 -999 37 4.1 100140 45
2012-04-12 07:18 51°13.65 2°55.947 2.5 57 4.2 100140 46
2012-04-12 07:19 51°13.676 2°55.858 3.1 43 4.2 100140 45
2012-04-12 07:20 51°13.721 2°55.763 2.8 42 4.3 100140 47
2012-04-12 07:21 51°13.779 2°55.674 3.2 37 4.4 100140 45
2012-04-12 07:22 51°13.849 2°55.621 2.2 52 4.5 100140 46
2012-04-12 07:23 51°13.926 2°55.611 0.6 33 4.6 100140 46
2012-04-12 07:24 51°13.972 2°55.641 0.4 356 4.7 100140 46
2012-04-12 07:25 51°13.983 2°55.629 2.5 305 5 100140 46
2012-04-12 07:26 51°14.028 2°55.541 3.3 308 5.2 100140 46
2012-04-12 07:27 51°14.139 2°55.418 4.3 322 5.3 100140 46
2012-04-12 07:28 51°14.281 2°55.287 5.5 308 5.4 100140 47
2012-04-12 07:29 51°14.438 2°55.151 5.4 310 5.7 100130 46
2012-04-12 07:30 51°14.599 2°54.997 6 304 5.7 100130 48
2012-04-12 07:31 51°14.759 2°54.801 5.9 308 5.6 100130 46
2012-04-12 07:32 51°14.924 2°54.589 6.4 307 5.6 100130 49
2012-04-12 07:33 51°15.085 2°54.381 5.6 305 5.7 100140 47
2012-04-12 07:34 51°15.253 2°54.179 5.4 310 5.8 100140 48
2012-04-12 07:35 51°15.419 2°53.993 5.5 308 5.9 100140 46
2012-04-12 07:36 51°15.579 2°53.812 8.8 323 6.2 100140 48
2012-04-12 07:37 51°15.738 2°53.623 9 321 6.5 100130 48
2012-04-12 07:38 51°15.85 2°53.489 5.7 305 6.7 100120 48
2012-04-12 07:39 51°15.922 2°53.411 5.5 304 6.9 100140 48
2012-04-12 07:40 51°15.984 2°53.372 5.5 302 7.1 100140 49
2012-04-12 07:41 51°16.054 2°53.336 6.4 305 7.2 100140 48
2012-04-12 07:42 51°16.135 2°53.285 5.2 308 7.2 100140 48
2012-04-12 07:43 51°16.218 2°53.218 6 303 7.3 100140 49
2012-04-12 07:44 51°16.301 2°53.159 6.7 310 7.3 100140 49
2012-04-12 07:45 51°16.384 2°53.11 6.7 308 7.4 100140 49
2012-04-12 07:46 51°16.479 2°53.051 6.8 304 7.5 100140 47
2012-04-12 07:47 51°16.581 2°52.982 6.8 280 7.5 100130 48
2012-04-12 07:48 51°16.677 2°52.904 7 305 7.5 100130 46
2012-04-12 07:49 51°16.762 2°52.824 5.7 309 7.5 100140 45
2012-04-12 07:50 51°16.846 2°52.749 6.6 310 7.6 100140 47
2012-04-12 07:51 51°16.937 2°52.684 6.8 302 7.5 100140 47
2012-04-12 07:52 51°17.032 2°52.624 5.6 305 7.6 100140 47
2012-04-12 07:53 51°17.126 2°52.555 7.1 307 7.6 100140 46
2012-04-12 07:54 51°17.217 2°52.476 6.3 284 7.6 100140 46
2012-04-12 07:55 51°17.311 2°52.409 7.1 309 7.6 100140 46
2012-04-12 07:56 51°17.413 2°52.381 6.9 280 7.6 100140 46
2012-04-12 07:57 51°17.516 2°52.361 6.5 310 7.6 100140 45
2012-04-12 07:58 51°17.618 2°52.342 7 304 7.7 100140 46
2012-04-12 07:59 51°17.718 2°52.321 6.6 304 7.7 100140 45
2012-04-12 08:00 51°17.819 2°52.309 7.1 306 7.7 100140 45
2012-04-12 08:01 51°17.922 2°52.302 6.4 305 7.7 100140 46
2012-04-12 08:02 51°18.022 2°52.28 6.3 308 7.7 100140 46
2012-04-12 08:03 51°18.123 2°52.256 5.8 282 7.7 100140 45
2012-04-12 08:04 51°18.225 2°52.236 6.2 310 7.8 100150 47
2012-04-12 08:05 51°18.327 2°52.223 5.6 282 7.8 100140 43
2012-04-12 08:06 51°18.429 2°52.214 5.4 308 7.8 100140 47
2012-04-12 08:07 51°18.531 2°52.196 6.9 280 7.8 100140 46
2012-04-12 08:08 51°18.632 2°52.17 7 305 7.8 100140 46
2012-04-12 08:09 51°18.733 2°52.15 6.3 302 7.8 100140 46
2012-04-12 08:10 51°18.835 2°52.139 5.7 304 7.8 100140 46
2012-04-12 08:11 51°18.936 2°52.128 5.5 305 7.8 100140 45
2012-04-12 08:12 51°19.038 2°52.106 5.8 310 7.8 100140 44
2012-04-12 08:13 51°19.14 2°52.077 5.9 304 7.9 100140 44
2012-04-12 08:14 51°19.241 2°52.061 5.8 280 7.8 100140 45
2012-04-12 08:15 51°19.341 2°52.052 4.9 303 7.8 100150 45
2012-04-12 08:16 51°19.44 2°52.032 6 303 7.9 100150 46
2012-04-12 08:17 51°19.538 2°52.009 6 302 7.9 100150 46
2012-04-12 08:18 51°19.635 2°51.991 5.6 305 7.9 100150 46
2012-04-12 08:19 51°19.732 2°51.979 5.4 308 7.9 100150 45
2012-04-12 08:20 51°19.829 2°51.973 5.9 302 8 100160 46
2012-04-12 08:21 51°19.926 2°51.96 5.5 305 8 100150 45
2012-04-12 08:22 51°20.023 2°51.934 4.8 308 8 100150 45
2012-04-12 08:23 51°20.121 2°51.911 5.6 283 8 100150 46
2012-04-12 08:24 51°20.218 2°51.898 5.8 309 8 100150 46
2012-04-12 08:25 51°20.316 2°51.885 5.4 280 8 100150 45
2012-04-12 08:26 51°20.408 2°51.831 5.8 308 8.1 100150 46
2012-04-12 08:27 51°20.485 2°51.73 7.2 304 8.1 100150 47
2012-04-12 08:28 51°20.537 2°51.59 8.2 328 8 100160 47
2012-04-12 08:29 51°20.564 2°51.43 7.6 333 7.9 100160 47
2012-04-12 08:30 51°20.556 2°51.265 6.6 339 7.9 100160 47
2012-04-12 08:31 51°20.54 2°51.099 6.8 339 7.8 100160 47
2012-04-12 08:32 51°20.529 2°50.936 6.8 280 7.8 100160 46
2012-04-12 08:33 51°20.521 2°50.778 6.9 339 7.8 100160 48
2012-04-12 08:34 51°20.516 2°50.62 6.6 281 7.8 100170 47
2012-04-12 08:35 51°20.516 2°50.462 6.6 338 7.8 100170 46
2012-04-12 08:36 51°20.515 2°50.304 6.4 334 7.8 100170 46
2012-04-12 08:37 51°20.515 2°50.145 7.1 336 7.7 100170 47
2012-04-12 08:38 51°20.51 2°49.985 7 339 7.7 100180 48
2012-04-12 08:39 51°20.502 2°49.824 6.8 336 7.7 100170 46
2012-04-12 08:40 51°20.501 2°49.661 6.3 336 7.7 100180 46
2012-04-12 08:41 51°20.5 2°49.501 5.9 336 7.7 100180 46
2012-04-12 08:42 51°20.502 2°49.34 6.3 336 7.7 100180 47
2012-04-12 08:43 51°20.503 2°49.179 5.9 336 7.7 100180 47
2012-04-12 08:44 51°20.496 2°49.018 6.4 336 7.8 100180 47
2012-04-12 08:45 51°20.49 2°48.857 6.7 336 7.7 100180 48
2012-04-12 08:46 51°20.49 2°48.694 5.9 335 7.7 100180 46
2012-04-12 08:47 51°20.486 2°48.532 6.1 333 7.7 100180 48
2012-04-12 08:48 51°20.479 2°48.373 6.5 333 7.7 100180 46
2012-04-12 08:49 51°20.477 2°48.216 5.5 334 7.7 100180 48
2012-04-12 08:50 51°20.471 2°48.057 6.3 333 7.7 100180 47
2012-04-12 08:51 51°20.46 2°47.899 5.7 335 7.7 100180 48
2012-04-12 08:52 51°20.46 2°47.74 6.5 327 7.7 100180 48
2012-04-12 08:53 51°20.475 2°47.585 5.8 329 7.7 100190 45
2012-04-12 08:54 51°20.49 2°47.427 6.9 329 7.7 100190 48
2012-04-12 08:55 51°20.502 2°47.267 6.8 331 7.7 100190 46
2012-04-12 08:56 51°20.51 2°47.104 5.7 333 7.6 100190 46
2012-04-12 08:57 51°20.514 2°46.94 5.8 332 7.6 100190 48
2012-04-12 08:58 51°20.523 2°46.776 7.1 331 7.7 100190 48
2012-04-12 08:59 51°20.538 2°46.612 6.6 332 7.7 100200 46
2012-04-12 09:00 51°20.551 2°46.446 6.8 334 7.7 100190 47
2012-04-12 09:01 51°20.559 2°46.279 6.1 331 7.6 100190 46
2012-04-12 09:02 51°20.563 2°46.111 6.7 332 7.6 100200 48
2012-04-12 09:03 51°20.567 2°45.943 6 337 7.7 100200 48
2012-04-12 09:04 51°20.533 2°45.796 5.8 350 7.7 100200 46
2012-04-12 09:05 51°20.459 2°45.707 4.8 6 7.7 100190 46
2012-04-12 09:06 51°20.37 2°45.666 4.9 7 7.6 100200 47
2012-04-12 09:07 51°20.277 2°45.65 -999 10 7.5 100200 47
2012-04-12 09:08 51°20.19 2°45.665 -999 20 7.6 100210 48
2012-04-12 09:09 51°20.123 2°45.729 -999 33 7.6 100210 47
2012-04-12 09:10 51°20.088 2°45.824 -999 54 7.7 100210 48
2012-04-12 09:11 51°20.085 2°45.932 -999 54 7.8 100210 48
2012-04-12 09:12 51°20.086 2°46.045 -999 54 7.9 100220 48
2012-04-12 09:13 51°20.077 2°46.16 -999 54 7.9 100210 48
2012-04-12 09:14 51°20.069 2°46.276 -999 54 7.9 100220 47
2012-04-12 09:15 51°20.065 2°46.393 -999 54 7.8 100210 47
2012-04-12 09:16 51°20.064 2°46.521 -999 54 7.8 100220 47
2012-04-12 09:17 51°20.063 2°46.658 -999 54 7.9 100220 46
2012-04-12 09:18 51°20.047 2°46.797 -999 54 7.9 100220 47
2012-04-12 09:19 51°20.029 2°46.935 -999 54 7.9 100220 47
2012-04-12 09:20 51°20.025 2°47.075 -999 54 7.9 100220 47
2012-04-12 09:21 51°20.025 2°47.214 -999 54 8 100220 47
2012-04-12 09:22 51°20.02 2°47.355 -999 54 8 100220 47
2012-04-12 09:23 51°20.013 2°47.493 -999 54 8 100220 47
2012-04-12 09:24 51°20.004 2°47.641 -999 54 8.1 100220 47
2012-04-12 09:25 51°20.001 2°47.792 -999 54 8.1 100220 46
2012-04-12 09:26 51°20.002 2°47.943 -999 54 8.1 100230 47
2012-04-12 09:27 51°19.998 2°48.093 -999 54 8.3 100220 48
2012-04-12 09:28 51°19.986 2°48.243 -999 54 8.4 100230 48
2012-04-12 09:29 51°19.979 2°48.392 -999 306 8.5 100220 49
2012-04-12 09:30 51°19.979 2°48.541 -999 306 8.5 100220 50
2012-04-12 09:31 51°19.976 2°48.691 -999 306 8.6 100220 49
2012-04-12 09:32 51°19.964 2°48.842 -999 54 8.6 100220 50
2012-04-12 09:33 51°19.956 2°48.992 -999 54 8.6 100230 48
2012-04-12 09:34 51°19.956 2°49.143 -999 306 8.7 100230 49
2012-04-12 09:35 51°19.951 2°49.296 -999 306 8.8 100230 49
2012-04-12 09:36 51°19.94 2°49.449 -999 54 8.9 100230 50
2012-04-12 09:37 51°19.929 2°49.601 -999 306 9.1 100230 50
2012-04-12 09:38 51°19.922 2°49.753 -999 306 9.3 100230 50
2012-04-12 09:39 51°19.917 2°49.904 -999 306 9.4 100230 49
2012-04-12 09:40 51°19.912 2°50.055 -999 306 9.5 100230 49
2012-04-12 09:41 51°19.896 2°50.205 -999 306 9.5 100230 48
2012-04-12 09:42 51°19.887 2°50.348 -999 54 9.6 100230 49
2012-04-12 09:43 51°19.884 2°50.464 -999 54 9.7 100230 48
2012-04-12 09:44 51°19.88 2°50.57 -999 54 9.5 100230 47
2012-04-12 09:45 51°19.87 2°50.671 -999 54 9.4 100230 47
2012-04-12 09:46 51°19.859 2°50.769 -999 54 9.3 100230 47
2012-04-12 09:47 51°19.851 2°50.867 -999 55 9.2 100240 48
2012-04-12 09:48 51°19.849 2°50.964 -999 54 9.1 100240 48
2012-04-12 09:49 51°19.846 2°51.063 -999 54 8.9 100240 47
2012-04-12 09:50 51°19.835 2°51.161 -999 54 8.8 100240 48
2012-04-12 09:51 51°19.822 2°51.259 -999 54 8.8 100240 48
2012-04-12 09:52 51°19.813 2°51.358 -999 54 8.8 100250 48
2012-04-12 09:53 51°19.808 2°51.458 -999 54 8.7 100240 48
2012-04-12 09:54 51°19.804 2°51.557 -999 309 8.6 100240 49
2012-04-12 09:55 51°19.827 2°51.633 -999 306 8.7 100240 49
2012-04-12 09:56 51°19.879 2°51.664 4.5 310 8.8 100240 50
2012-04-12 09:57 51°19.942 2°51.649 5.1 309 8.8 100240 49
2012-04-12 09:58 51°20.003 2°51.591 6.5 309 8.8 100240 48
2012-04-12 09:59 51°20.054 2°51.492 5.8 307 8.7 100240 47
2012-04-12 10:00 51°20.084 2°51.361 6.3 328 8.7 100240 49
2012-04-12 10:01 51°20.103 2°51.213 6.5 332 8.5 100240 48
2012-04-12 10:02 51°20.113 2°51.056 6.4 336 8.3 100240 49
2012-04-12 10:03 51°20.118 2°50.898 6.3 336 8.2 100240 48
2012-04-12 10:04 51°20.124 2°50.739 7.8 331 8.2 100240 51
2012-04-12 10:05 51°20.135 2°50.581 6 329 8.2 100240 48
2012-04-12 10:06 51°20.15 2°50.426 6.9 329 8.1 100240 50
2012-04-12 10:07 51°20.154 2°50.268 6.9 334 8.1 100240 51
2012-04-12 10:08 51°20.146 2°50.109 6.6 337 8 100240 50
2012-04-12 10:09 51°20.138 2°49.951 6.5 335 8.1 100240 50
2012-04-12 10:10 51°20.133 2°49.792 7.1 334 8.1 100240 49
2012-04-12 10:11 51°20.133 2°49.638 7.4 332 8.1 100230 50
2012-04-12 10:12 51°20.133 2°49.485 7 333 8.1 100240 50
2012-04-12 10:13 51°20.128 2°49.331 7 336 8 100240 49
2012-04-12 10:14 51°20.122 2°49.177 7.4 335 8 100240 49
2012-04-12 10:15 51°20.122 2°49.022 6.9 333 8 100240 50
2012-04-12 10:16 51°20.122 2°48.868 6.7 334 8 100240 50
2012-04-12 10:17 51°20.12 2°48.713 6.1 336 8 100240 51
2012-04-12 10:18 51°20.117 2°48.556 6.8 338 8 100240 51
2012-04-12 10:19 51°20.114 2°48.399 6.8 337 8.1 100240 51
2012-04-12 10:20 51°20.114 2°48.242 7.4 334 8 100240 50
2012-04-12 10:21 51°20.118 2°48.085 6.7 336 8.1 100250 50
2012-04-12 10:22 51°20.117 2°47.926 7.4 337 8.1 100240 50
2012-04-12 10:23 51°20.112 2°47.767 6.7 336 8.1 100240 50
2012-04-12 10:24 51°20.106 2°47.607 6.5 337 8.1 100240 51
2012-04-12 10:25 51°20.105 2°47.448 7.7 332 8.1 100240 50
2012-04-12 10:26 51°20.108 2°47.29 6.7 337 8.1 100240 50
2012-04-12 10:27 51°20.11 2°47.13 7.9 335 8.1 100240 51
2012-04-12 10:28 51°20.107 2°46.971 7.4 337 8 100240 51
2012-04-12 10:29 51°20.101 2°46.811 7 337 8.1 100240 49
2012-04-12 10:30 51°20.099 2°46.65 7.7 336 8.1 100240 50
2012-04-12 10:31 51°20.103 2°46.49 7.7 335 8.1 100240 50
2012-04-12 10:32 51°20.109 2°46.329 7 336 8 100240 50
2012-04-12 10:33 51°20.111 2°46.17 6.8 340 8.1 100240 50
2012-04-12 10:34 51°20.108 2°46.007 6.8 337 8.1 100240 50
2012-04-12 10:35 51°20.105 2°45.844 7 338 8.2 100240 51
2012-04-12 10:36 51°20.107 2°45.68 7.4 337 8.2 100240 50
2012-04-12 10:37 51°20.114 2°45.517 8.1 337 8.2 100240 50
2012-04-12 10:38 51°20.117 2°45.354 7.4 337 8.2 100250 49
2012-04-12 10:39 51°20.128 2°45.199 7.6 330 8.2 100250 49
2012-04-12 10:40 51°20.16 2°45.065 6.8 309 8.2 100250 50
2012-04-12 10:41 51°20.214 2°44.981 7.4 303 8.2 100240 50
2012-04-12 10:42 51°20.275 2°44.948 6.2 303 8.1 100250 50
2012-04-12 10:43 51°20.329 2°44.968 6.2 307 8.2 100250 49
2012-04-12 10:44 51°20.362 2°45.031 3.3 308 8.3 100260 50
2012-04-12 10:45 51°20.366 2°45.117 3.4 51 8.3 100260 50
2012-04-12 10:46 51°20.367 2°45.208 3.6 51 8.3 100260 49
2012-04-12 10:47 51°20.373 2°45.3 4.1 58 8.3 100260 49
2012-04-12 10:48 51°20.376 2°45.394 3.8 52 8.2 100260 48
2012-04-12 10:49 51°20.38 2°45.488 1.8 308 8.2 100260 50
2012-04-12 10:50 51°20.381 2°45.582 3.4 57 8.3 100260 51
2012-04-12 10:51 51°20.381 2°45.675 3.8 52 8.3 100260 49
2012-04-12 10:52 51°20.385 2°45.768 4.1 310 8.3 100260 51
2012-04-12 10:53 51°20.394 2°45.858 3.6 308 8.3 100260 50
2012-04-12 10:54 51°20.401 2°45.95 3.5 51 8.2 100260 48
2012-04-12 10:55 51°20.394 2°46.043 3.8 54 8.2 100250 48
2012-04-12 10:56 51°20.384 2°46.131 4.5 58 8.2 100260 49
2012-04-12 10:57 51°20.384 2°46.219 4 301 8.1 100260 50
2012-04-12 10:58 51°20.383 2°46.309 3.8 58 8.1 100260 48
2012-04-12 10:59 51°20.373 2°46.401 3.4 53 8.1 100260 48
2012-04-12 11:00 51°20.365 2°46.493 3.2 58 8.1 100260 50
2012-04-12 11:01 51°20.361 2°46.585 3.7 56 8.1 100260 48
2012-04-12 11:02 51°20.36 2°46.676 3.6 55 8.2 100260 48
2012-04-12 11:03 51°20.356 2°46.767 3 62 8.2 100260 50
2012-04-12 11:04 51°20.348 2°46.86 3.3 59 8.2 100260 49
2012-04-12 11:05 51°20.342 2°46.952 3.4 308 8.2 100260 48
2012-04-12 11:06 51°20.34 2°47.042 3.3 310 8.1 100260 49
2012-04-12 11:07 51°20.342 2°47.133 4.3 51 8.2 100260 50
2012-04-12 11:08 51°20.339 2°47.226 3.4 53 8.1 100260 49
2012-04-12 11:09 51°20.33 2°47.319 4.3 59 8.1 100260 49
2012-04-12 11:10 51°20.323 2°47.413 4.1 53 8.1 100260 49
2012-04-12 11:11 51°20.318 2°47.506 4.2 58 8 100270 48
2012-04-12 11:12 51°20.318 2°47.597 3.6 54 8 100270 50
2012-04-12 11:13 51°20.316 2°47.689 3.9 57 8.1 100270 50
2012-04-12 11:14 51°20.308 2°47.783 3.8 55 8.1 100260 50
2012-04-12 11:15 51°20.298 2°47.876 3.3 58 8.1 100270 49
2012-04-12 11:16 51°20.293 2°47.968 4.2 53 8.1 100260 50
2012-04-12 11:17 51°20.292 2°48.059 3.5 57 8.1 100260 48
2012-04-12 11:18 51°20.29 2°48.151 3.9 55 8.2 100260 49
2012-04-12 11:19 51°20.282 2°48.244 3.1 58 8.2 100260 50
2012-04-12 11:20 51°20.271 2°48.338 4.3 58 8.2 100260 49
2012-04-12 11:21 51°20.266 2°48.43 4.4 51 8.2 100270 48
2012-04-12 11:22 51°20.264 2°48.52 3.7 306 8.2 100260 48
2012-04-12 11:23 51°20.258 2°48.612 3.8 56 8.1 100260 48
2012-04-12 11:24 51°20.253 2°48.704 4.6 58 8.1 100270 49
2012-04-12 11:25 51°20.256 2°48.792 3.2 305 8.1 100260 49
2012-04-12 11:26 51°20.264 2°48.879 4.6 58 8.1 100260 49
2012-04-12 11:27 51°20.268 2°48.969 4.3 50 8.1 100260 48
2012-04-12 11:28 51°20.267 2°49.062 4.1 58 8.1 100260 50
2012-04-12 11:29 51°20.268 2°49.154 4.1 57 8.1 100260 48
2012-04-12 11:30 51°20.272 2°49.245 3.9 307 8.1 100260 49
2012-04-12 11:31 51°20.28 2°49.331 3 304 8.1 100250 48
2012-04-12 11:32 51°20.285 2°49.418 3.6 55 8.2 100260 50
2012-04-12 11:33 51°20.283 2°49.507 4.5 49 8.2 100260 49
2012-04-12 11:34 51°20.282 2°49.596 3.5 302 8.1 100250 50
2012-04-12 11:35 51°20.287 2°49.682 4.7 55 8.1 100250 50
2012-04-12 11:36 51°20.293 2°49.769 4 307 8.1 100250 49
2012-04-12 11:37 51°20.295 2°49.857 4 303 8 100250 48
2012-04-12 11:38 51°20.292 2°49.947 3.4 307 8 100260 48
2012-04-12 11:39 51°20.293 2°50.035 3.7 307 8.1 100250 50
2012-04-12 11:40 51°20.299 2°50.12 4.2 303 8 100250 49
2012-04-12 11:41 51°20.305 2°50.205 4.1 310 8.1 100250 50
2012-04-12 11:42 51°20.306 2°50.293 3.7 55 8.1 100250 49
2012-04-12 11:43 51°20.305 2°50.381 3.9 307 8.1 100250 49
2012-04-12 11:44 51°20.306 2°50.469 3.4 308 8.1 100250 49
2012-04-12 11:45 51°20.314 2°50.557 4 302 8.1 100250 50
2012-04-12 11:46 51°20.322 2°50.645 4.8 55 8.1 100240 50
2012-04-12 11:47 51°20.324 2°50.736 3.6 310 8 100250 49
2012-04-12 11:48 51°20.324 2°50.828 4.1 311 8 100250 48
2012-04-12 11:49 51°20.331 2°50.918 5 59 8 100250 48
2012-04-12 11:50 51°20.34 2°51.008 4.5 53 8 100250 49
2012-04-12 11:51 51°20.346 2°51.1 3.1 306 8 100250 48
2012-04-12 11:52 51°20.347 2°51.195 3.7 59 8 100250 49
2012-04-12 11:53 51°20.347 2°51.292 3.2 307 8.1 100250 48
2012-04-12 11:54 51°20.339 2°51.388 2.8 57 8.1 100250 49
2012-04-12 11:55 51°20.291 2°51.468 3.4 81 8.1 100250 50
2012-04-12 11:56 51°20.218 2°51.524 3.5 39 8 100260 48
2012-04-12 11:57 51°20.135 2°51.562 4.3 32 8 100260 49
2012-04-12 11:58 51°20.042 2°51.573 4.8 23 8.1 100250 49
2012-04-12 11:59 51°19.95 2°51.522 5.5 5 8.1 100260 49
2012-04-12 12:00 51°19.876 2°51.414 6.1 -999 8 100250 50
2012-04-12 12:01 51°19.809 2°51.288 6.3 353 7.9 100250 49
2012-04-12 12:02 51°19.749 2°51.152 6.2 352 7.8 100240 49
2012-04-12 12:03 51°19.708 2°51.005 6.7 345 7.8 100240 50
2012-04-12 12:04 51°19.666 2°50.857 8 349 7.7 100240 50
2012-04-12 12:05 51°19.633 2°50.708 7.8 342 7.7 100240 50
2012-04-12 12:06 51°19.618 2°50.557 8.2 342 7.8 100240 50
2012-04-12 12:07 51°19.605 2°50.407 7.9 344 7.8 100240 51
2012-04-12 12:08 51°19.59 2°50.255 7.3 344 7.9 100240 50
2012-04-12 12:09 51°19.57 2°50.104 7.6 344 7.8 100240 50
2012-04-12 12:10 51°19.546 2°49.953 7.9 345 7.8 100240 50
2012-04-12 12:11 51°19.525 2°49.802 7.1 344 7.7 100240 50
2012-04-12 12:12 51°19.512 2°49.649 6.4 343 7.8 100240 51
2012-04-12 12:13 51°19.496 2°49.496 6.6 344 7.9 100240 51
2012-04-12 12:14 51°19.474 2°49.342 7.3 343 7.9 100240 51
2012-04-12 12:15 51°19.452 2°49.187 7.3 343 8 100240 51
2012-04-12 12:16 51°19.439 2°49.032 7 338 8 100240 50
2012-04-12 12:17 51°19.434 2°48.877 7.5 339 8.1 100240 51
2012-04-12 12:18 51°19.425 2°48.719 7.8 340 8.1 100240 51
2012-04-12 12:19 51°19.413 2°48.558 6.8 339 8.2 100240 50
2012-04-12 12:20 51°19.398 2°48.397 8.7 342 8.3 100240 51
2012-04-12 12:21 51°19.379 2°48.235 6.4 341 8.3 100240 49
2012-04-12 12:22 51°19.359 2°48.073 6.9 342 8.3 100230 50
2012-04-12 12:23 51°19.345 2°47.909 6.7 339 8.3 100240 49
2012-04-12 12:24 51°19.336 2°47.745 6.5 340 8.3 100240 49
2012-04-12 12:25 51°19.323 2°47.578 7.3 338 8.4 100240 50
2012-04-12 12:26 51°19.305 2°47.411 6.6 343 8.4 100240 51
2012-04-12 12:27 51°19.285 2°47.244 7.9 343 8.3 100240 50
2012-04-12 12:28 51°19.269 2°47.076 7.9 341 8.3 100240 51
2012-04-12 12:29 51°19.26 2°46.909 7.4 337 8.3 100240 50
2012-04-12 12:30 51°19.248 2°46.743 7.3 341 8.3 100240 50
2012-04-12 12:31 51°19.233 2°46.578 6.5 342 8.3 100240 51
2012-04-12 12:32 51°19.221 2°46.414 7.8 336 8.3 100250 50
2012-04-12 12:33 51°19.226 2°46.259 6.8 330 8.3 100250 50
2012-04-12 12:34 51°19.25 2°46.119 6.5 303 8.3 100250 51
2012-04-12 12:35 51°19.297 2°46.034 5.9 301 8.3 100250 50
2012-04-12 12:36 51°19.349 2°46.019 5.2 303 8.3 100250 50
2012-04-12 12:37 51°19.386 2°46.06 4.6 307 8.4 100260 52
2012-04-12 12:38 51°19.389 2°46.135 3.1 302 8.5 100260 51
2012-04-12 12:39 51°19.383 2°46.22 2.5 308 8.4 100260 51
2012-04-12 12:40 51°19.382 2°46.305 2.6 303 8.4 100260 51
2012-04-12 12:41 51°19.383 2°46.39 2.6 301 8.4 100260 51
2012-04-12 12:42 51°19.38 2°46.477 1.6 308 8.5 100260 51
2012-04-12 12:43 51°19.371 2°46.565 2.4 308 8.5 100260 49
2012-04-12 12:44 51°19.365 2°46.651 2.6 304 8.4 100270 49
2012-04-12 12:45 51°19.359 2°46.736 2.3 301 8.4 100270 50
2012-04-12 12:46 51°19.36 2°46.819 1.9 301 8.4 100270 51
2012-04-12 12:47 51°19.356 2°46.904 2.9 54 8.4 100270 50
2012-04-12 12:48 51°19.348 2°46.99 3.2 309 8.4 100270 50
2012-04-12 12:49 51°19.341 2°47.076 2.8 310 8.4 100270 51
2012-04-12 12:50 51°19.327 2°47.163 2.5 54 8.4 100280 49
2012-04-12 12:51 51°19.305 2°47.253 2.2 56 8.4 100280 51
2012-04-12 12:52 51°19.284 2°47.342 1.6 54 8.4 100280 51
2012-04-12 12:53 51°19.266 2°47.431 1.8 14 8.4 100280 51
2012-04-12 12:54 51°19.253 2°47.521 2.7 52 8.4 100280 49
2012-04-12 12:55 51°19.239 2°47.612 2 56 8.4 100280 51
2012-04-12 12:56 51°19.219 2°47.705 0.6 52 8.4 100280 50
2012-04-12 12:57 51°19.197 2°47.797 1.5 306 8.5 100280 50
2012-04-12 12:58 51°19.188 2°47.887 2.2 302 8.5 100280 50
2012-04-12 12:59 51°19.191 2°47.975 2.2 310 8.6 100270 52
2012-04-12 13:00 51°19.192 2°48.066 2.1 53 8.7 100280 52
2012-04-12 13:01 51°19.188 2°48.16 2.4 303 8.6 100280 51
2012-04-12 13:02 51°19.181 2°48.256 2.5 314 8.7 100280 51
2012-04-12 13:03 51°19.176 2°48.353 2.6 305 8.7 100280 50
2012-04-12 13:04 51°19.178 2°48.448 3.2 309 8.6 100280 49
2012-04-12 13:05 51°19.181 2°48.544 2.8 309 8.6 100280 49
2012-04-12 13:06 51°19.18 2°48.644 3.1 52 8.5 100280 50
2012-04-12 13:07 51°19.177 2°48.747 3.2 309 8.6 100280 50
2012-04-12 13:08 51°19.174 2°48.85 4.2 303 8.7 100280 48
2012-04-12 13:09 51°19.191 2°48.939 4.7 309 8.7 100280 49
2012-04-12 13:10 51°19.227 2°49.01 5.4 307 8.7 100280 50
2012-04-12 13:11 51°19.278 2°49.046 5.3 306 8.8 100270 49
2012-04-12 13:12 51°19.337 2°49.038 5.8 307 8.8 100270 49
2012-04-12 13:13 51°19.394 2°48.988 6.7 303 8.7 100270 48
2012-04-12 13:14 51°19.438 2°48.896 6.3 331 8.7 100270 49
2012-04-12 13:15 51°19.466 2°48.77 6.6 331 8.6 100270 50
2012-04-12 13:16 51°19.508 2°48.663 6.4 302 8.5 100270 50
2012-04-12 13:17 51°19.563 2°48.603 6.3 301 8.5 100270 49
2012-04-12 13:18 51°19.61 2°48.622 5.1 308 8.4 100270 50
2012-04-12 13:19 51°19.611 2°48.694 2.9 52 8.5 100280 50
2012-04-12 13:20 51°19.559 2°48.752 2.6 56 8.5 100290 49
2012-04-12 13:21 51°19.49 2°48.805 0.1 50 8.4 100290 48
2012-04-12 13:22 51°19.428 2°48.878 1.9 52 8.4 100290 48
2012-04-12 13:23 51°19.369 2°48.958 1.9 54 8.3 100290 49
2012-04-12 13:24 51°19.308 2°49.041 0.9 60 8.2 100280 48
2012-04-12 13:25 51°19.244 2°49.121 0.4 50 8.2 100290 49
2012-04-12 13:26 51°19.177 2°49.196 0.1 59 8.4 100290 50
2012-04-12 13:27 51°19.114 2°49.281 0.5 54 8.6 100290 50
2012-04-12 13:28 51°19.056 2°49.371 0.8 52 8.7 100290 49
2012-04-12 13:29 51°18.995 2°49.46 0.1 54 8.8 100290 50
2012-04-12 13:30 51°18.929 2°49.542 1.9 52 9 100290 48
2012-04-12 13:31 51°18.864 2°49.624 1.3 52 8.8 100290 46
2012-04-12 13:32 51°18.799 2°49.708 0.5 60 8.7 100290 48
2012-04-12 13:33 51°18.739 2°49.797 0.2 57 8.7 100290 48
2012-04-12 13:34 51°18.678 2°49.885 0.5 57 8.9 100290 49
2012-04-12 13:35 51°18.613 2°49.971 1.8 58 8.9 100290 48
2012-04-12 13:36 51°18.545 2°50.052 0.1 54 8.8 100300 47
2012-04-12 13:37 51°18.477 2°50.136 0.1 59 8.9 100300 48
2012-04-12 13:38 51°18.41 2°50.217 0.1 55 9 100300 49
2012-04-12 13:39 51°18.342 2°50.293 0.1 54 9.2 100300 49
2012-04-12 13:40 51°18.278 2°50.374 1 57 9.2 100300 48
2012-04-12 13:41 51°18.213 2°50.454 0.1 49 9.1 100300 47
2012-04-12 13:42 51°18.146 2°50.532 -999 44 8.9 100300 47
2012-04-12 13:43 51°18.077 2°50.609 0.2 54 8.8 100300 48
2012-04-12 13:44 51°18.009 2°50.687 0.7 52 8.7 100300 49
2012-04-12 13:45 51°17.945 2°50.771 0.1 55 8.7 100300 47
2012-04-12 13:46 51°17.883 2°50.86 0.2 56 8.6 100300 48
2012-04-12 13:47 51°17.82 2°50.949 0.1 57 8.5 100300 48
2012-04-12 13:48 51°17.73 2°51.058 -999 28 8.6 100300 49
2012-04-12 13:49 51°17.584 2°51.23 1 341 8.7 100300 49
2012-04-12 13:50 51°17.421 2°51.437 1.5 336 8.6 100300 49
2012-04-12 13:51 51°17.26 2°51.652 1.3 324 8.7 100300 49
2012-04-12 13:52 51°17.109 2°51.883 1.8 328 8.8 100300 49
2012-04-12 13:53 51°16.946 2°52.094 1.4 336 8.8 100300 49
2012-04-12 13:54 51°16.766 2°52.272 3.1 339 8.8 100300 49
2012-04-12 13:55 51°16.588 2°52.455 2.3 335 8.9 100300 49
2012-04-12 13:56 51°16.423 2°52.664 1.9 335 8.9 100300 49
2012-04-12 13:57 51°16.25 2°52.855 2 333 8.8 100300 48
2012-04-12 13:58 51°16.077 2°53.046 0.8 329 8.8 100300 49
2012-04-12 13:59 51°15.908 2°53.244 1.8 325 8.9 100310 49
2012-04-12 14:00 51°15.747 2°53.454 1.7 326 8.9 100300 48
2012-04-12 14:01 51°15.584 2°53.652 1 332 9 100300 48
2012-04-12 14:02 51°15.454 2°53.811 -999 306 9.1 100300 49
2012-04-12 14:03 51°15.319 2°53.975 1.4 332 9.3 100300 49
2012-04-12 14:04 51°15.16 2°54.176 2.2 324 9.3 100300 47
2012-04-12 14:05 51°15.001 2°54.38 0.1 306 9.3 100300 48
2012-04-12 14:06 51°14.843 2°54.588 -999 326 9.3 100300 48
2012-04-12 14:07 51°14.684 2°54.793 -999 327 9.3 100300 47
2012-04-12 14:08 51°14.522 2°54.995 -999 330 9.2 100300 47
2012-04-12 14:09 51°14.364 2°55.178 -999 334 9.2 100300 48
2012-04-12 14:10 51°14.225 2°55.329 -999 334 9.2 100300 48
2012-04-12 14:11 51°14.113 2°55.422 -999 348 9.2 100300 48
2012-04-12 14:12 51°14.01 2°55.497 -999 24 9.4 100300 49
2012-04-12 14:13 51°13.918 2°55.572 -999 308 9.7 100300 49
2012-04-12 14:14 51°13.821 2°55.65 -999 306 9.9 100300 49
2012-04-12 14:15 51°13.745 2°55.739 -999 55 10.2 100300 49
2012-04-12 14:16 51°13.694 2°55.831 -999 306 10.1 100300 46
2012-04-12 14:17 51°13.658 2°55.916 -999 59 10 100300 46
2012-04-12 14:18 51°13.639 2°55.995 -999 306 10 100300 45
2012-04-12 14:19 51°13.636 2°56.016 4.2 54 9.9 100300 45